createdAt,value
2017-07-22T00:00:11.147Z,99.90
2017-07-22T00:02:38.703Z,99.90
2017-07-22T00:05:06.238Z,99.90
2017-07-22T00:07:33.803Z,99.90
2017-07-22T00:10:02.099Z,99.90
2017-07-22T00:12:29.639Z,99.90
2017-07-22T00:14:57.963Z,99.90
2017-07-22T00:17:25.494Z,99.90
2017-07-22T00:19:53.810Z,99.90
2017-07-22T00:22:21.546Z,99.90
2017-07-22T00:24:49.105Z,99.90
2017-07-22T00:27:16.634Z,99.90
2017-07-22T00:29:44.186Z,99.90
2017-07-22T00:32:11.711Z,99.90
2017-07-22T00:34:39.253Z,99.90
2017-07-22T00:37:06.796Z,99.90
2017-07-22T00:39:34.344Z,99.90
2017-07-22T00:42:02.644Z,99.90
2017-07-22T00:44:30.195Z,99.90
2017-07-22T00:46:57.726Z,99.90
2017-07-22T00:49:25.291Z,99.90
2017-07-22T00:51:53.587Z,99.90
2017-07-22T00:54:21.139Z,99.90
2017-07-22T00:56:49.437Z,99.90
2017-07-22T00:59:17.047Z,99.90
2017-07-22T01:01:44.755Z,99.90
2017-07-22T01:04:12.346Z,99.90
2017-07-22T01:06:44.604Z,99.90
2017-07-22T01:09:12.159Z,99.90
2017-07-22T01:11:39.690Z,99.90
2017-07-22T01:14:07.983Z,99.90
2017-07-22T01:16:35.530Z,99.90
2017-07-22T01:19:03.827Z,99.90
2017-07-22T01:21:31.386Z,99.90
2017-07-22T01:23:58.921Z,99.90
2017-07-22T01:26:27.246Z,99.90
2017-07-22T01:28:54.779Z,99.90
2017-07-22T01:31:22.331Z,99.90
2017-07-22T01:33:49.867Z,99.90
2017-07-22T01:36:18.190Z,99.90
2017-07-22T01:38:45.726Z,99.90
2017-07-22T01:41:13.274Z,99.90
2017-07-22T01:43:41.572Z,99.90
2017-07-22T01:46:09.125Z,99.90
2017-07-22T01:48:36.662Z,99.90
2017-07-22T01:51:04.977Z,99.90
2017-07-22T01:53:32.506Z,99.90
2017-07-22T01:56:00.824Z,99.90
2017-07-22T01:58:28.351Z,99.90
2017-07-22T02:00:56.673Z,99.90
2017-07-22T02:03:24.194Z,99.90
2017-07-22T02:05:51.747Z,99.90
2017-07-22T02:08:20.037Z,99.90
2017-07-22T02:10:47.598Z,99.90
2017-07-22T02:13:15.123Z,99.90
2017-07-22T02:15:42.651Z,99.90
2017-07-22T02:18:10.215Z,99.90
2017-07-22T02:20:37.742Z,99.90
2017-07-22T02:23:05.295Z,99.90
2017-07-22T02:25:32.826Z,99.90
2017-07-22T02:28:00.383Z,99.90
2017-07-22T02:30:27.907Z,99.90
2017-07-22T02:32:55.462Z,99.90
2017-07-22T02:35:22.986Z,99.90
2017-07-22T02:37:50.539Z,99.90
2017-07-22T02:40:18.838Z,99.90
2017-07-22T02:42:46.380Z,99.90
2017-07-22T02:45:13.905Z,99.90
2017-07-22T02:47:41.450Z,99.90
2017-07-22T02:50:08.975Z,99.90
2017-07-22T02:52:36.530Z,99.90
2017-07-22T02:55:04.054Z,99.90
2017-07-22T02:57:31.598Z,99.90
2017-07-22T02:59:59.119Z,99.90
2017-07-22T03:02:26.678Z,99.90
2017-07-22T03:04:54.201Z,99.90
2017-07-22T03:07:22.518Z,99.90
2017-07-22T03:09:50.033Z,99.90
2017-07-22T03:12:18.351Z,99.90
2017-07-22T03:14:45.878Z,99.90
2017-07-22T03:17:14.165Z,99.90
2017-07-22T03:19:41.715Z,99.90
2017-07-22T03:22:10.336Z,99.90
2017-07-22T03:24:37.880Z,99.90
2017-07-22T03:27:05.411Z,99.90
2017-07-22T03:29:33.727Z,99.90
2017-07-22T03:32:01.246Z,99.90
2017-07-22T03:34:29.575Z,99.90
2017-07-22T03:36:57.102Z,99.90
2017-07-22T03:39:24.652Z,99.90
2017-07-22T03:41:52.186Z,99.90
2017-07-22T03:44:19.731Z,99.90
2017-07-22T03:46:47.258Z,99.90
2017-07-22T03:49:14.806Z,99.90
2017-07-22T03:51:42.334Z,99.90
2017-07-22T03:54:09.886Z,99.90
2017-07-22T03:56:37.405Z,99.90
2017-07-22T03:59:04.963Z,99.90
2017-07-22T04:01:32.485Z,99.90
2017-07-22T04:04:00.031Z,99.90
2017-07-22T04:06:27.558Z,99.90
2017-07-22T04:08:55.105Z,99.90
2017-07-22T04:11:22.629Z,99.90
2017-07-22T04:13:50.171Z,99.90
2017-07-22T04:16:18.466Z,99.90
2017-07-22T04:18:45.994Z,99.90
2017-07-22T04:21:14.709Z,99.90
2017-07-22T04:23:42.253Z,99.90
2017-07-22T04:26:10.583Z,99.90
2017-07-22T04:28:38.107Z,99.90
2017-07-22T04:31:06.418Z,99.90
2017-07-22T04:33:33.938Z,99.90
2017-07-22T04:36:02.266Z,99.90
2017-07-22T04:38:29.786Z,99.90
2017-07-22T04:40:57.338Z,99.90
2017-07-22T04:43:24.865Z,99.90
2017-07-22T04:45:52.409Z,99.90
2017-07-22T04:48:19.930Z,99.90
2017-07-22T04:50:47.475Z,99.90
2017-07-22T04:53:15.762Z,99.90
2017-07-22T04:55:43.314Z,99.90
2017-07-22T04:58:10.843Z,99.90
2017-07-22T05:00:38.398Z,99.90
2017-07-22T05:03:05.927Z,99.90
2017-07-22T05:05:33.479Z,99.90
2017-07-22T05:08:01.006Z,99.90
2017-07-22T05:10:28.551Z,99.90
2017-07-22T05:12:56.075Z,99.90
2017-07-22T05:15:23.626Z,99.90
2017-07-22T05:17:51.153Z,99.90
2017-07-22T05:20:18.722Z,99.90
2017-07-22T05:22:46.249Z,99.90
2017-07-22T05:25:13.770Z,99.90
2017-07-22T05:27:41.366Z,99.90
2017-07-22T05:30:08.895Z,99.90
2017-07-22T05:32:36.450Z,99.90
2017-07-22T05:35:03.970Z,99.90
2017-07-22T05:37:31.517Z,99.90
2017-07-22T05:39:59.819Z,99.90
2017-07-22T05:42:27.368Z,99.90
2017-07-22T05:44:54.887Z,99.90
2017-07-22T05:47:22.448Z,99.90
2017-07-22T05:49:49.967Z,99.90
2017-07-22T05:52:17.523Z,99.90
2017-07-22T05:54:45.057Z,99.90
2017-07-22T05:57:13.367Z,99.90
2017-07-22T05:59:40.895Z,99.90
2017-07-22T06:02:09.213Z,99.90
2017-07-22T06:04:36.739Z,99.90
2017-07-22T06:07:04.290Z,99.90
2017-07-22T06:09:32.583Z,99.90
2017-07-22T06:12:00.126Z,99.90
2017-07-22T06:14:28.424Z,99.90
2017-07-22T06:16:55.998Z,99.90
2017-07-22T06:19:23.513Z,99.90
2017-07-22T06:21:51.694Z,99.90
2017-07-22T06:24:20.010Z,99.90
2017-07-22T06:26:47.531Z,99.90
2017-07-22T06:29:16.259Z,99.90
2017-07-22T06:31:44.099Z,99.90
2017-07-22T06:34:12.725Z,99.90
2017-07-22T06:36:40.867Z,99.90
2017-07-22T06:39:09.514Z,99.90
2017-07-22T06:41:37.182Z,99.90
2017-07-22T06:44:05.505Z,99.90
2017-07-22T06:46:33.026Z,99.90
2017-07-22T06:49:01.478Z,99.90
2017-07-22T06:51:29.142Z,99.90
2017-07-22T06:53:56.695Z,99.90
2017-07-22T06:56:24.232Z,99.90
2017-07-22T06:58:51.786Z,99.90
2017-07-22T07:01:19.310Z,99.90
2017-07-22T07:03:47.631Z,99.90
2017-07-22T07:06:15.157Z,99.90
2017-07-22T07:08:42.715Z,99.90
2017-07-22T07:11:10.578Z,99.90
2017-07-22T07:13:38.240Z,99.90
2017-07-22T07:16:07.135Z,99.90
2017-07-22T07:18:34.682Z,99.90
2017-07-22T07:21:02.970Z,99.90
2017-07-22T07:23:30.535Z,99.90
2017-07-22T07:25:58.067Z,99.90
2017-07-22T07:28:25.591Z,99.90
2017-07-22T07:30:53.142Z,99.90
2017-07-22T07:33:20.670Z,99.90
2017-07-22T07:35:48.232Z,99.90
2017-07-22T07:38:15.763Z,99.90
2017-07-22T07:40:43.315Z,99.90
2017-07-22T07:43:10.835Z,99.90
2017-07-22T07:45:38.404Z,99.90
2017-07-22T07:48:05.939Z,99.90
2017-07-22T07:50:33.487Z,99.90
2017-07-22T07:53:01.012Z,99.90
2017-07-22T07:55:28.558Z,99.90
2017-07-22T07:57:56.078Z,99.90
2017-07-22T08:00:23.625Z,99.90
2017-07-22T08:02:51.158Z,99.90
2017-07-22T08:05:18.711Z,99.90
2017-07-22T08:07:46.229Z,99.90
2017-07-22T08:10:13.780Z,99.90
2017-07-22T08:12:41.298Z,99.90
2017-07-22T08:15:08.849Z,99.90
2017-07-22T08:17:36.378Z,99.90
2017-07-22T08:20:03.927Z,99.90
2017-07-22T08:22:31.445Z,99.90
2017-07-22T08:24:59.738Z,99.90
2017-07-22T08:27:27.284Z,99.90
2017-07-22T08:29:55.574Z,99.90
2017-07-22T08:32:23.119Z,99.90
2017-07-22T08:34:51.411Z,99.90
2017-07-22T08:37:18.963Z,99.90
2017-07-22T08:39:47.247Z,99.90
2017-07-22T08:42:14.806Z,99.90
2017-07-22T08:44:42.327Z,99.90
2017-07-22T08:47:09.953Z,99.90
2017-07-22T08:49:37.470Z,99.90
2017-07-22T08:52:05.074Z,99.90
2017-07-22T08:54:32.601Z,99.90
2017-07-22T08:57:00.154Z,99.90
2017-07-22T08:59:28.442Z,99.90
2017-07-22T09:01:55.989Z,99.90
2017-07-22T09:04:24.277Z,99.90
2017-07-22T09:06:51.828Z,99.90
2017-07-22T09:09:20.110Z,99.90
2017-07-22T09:11:47.661Z,99.90
2017-07-22T09:14:15.951Z,99.90
2017-07-22T09:16:43.498Z,99.90
2017-07-22T09:19:11.789Z,99.90
2017-07-22T09:21:39.330Z,99.90
2017-07-22T09:24:07.625Z,99.90
2017-07-22T09:26:35.186Z,99.90
2017-07-22T09:29:02.705Z,99.90
2017-07-22T09:31:30.235Z,99.90
2017-07-22T09:33:57.783Z,99.90
2017-07-22T09:36:25.305Z,99.90
2017-07-22T09:38:53.628Z,99.90
2017-07-22T09:41:21.145Z,99.90
2017-07-22T09:43:49.465Z,99.90
2017-07-22T09:46:16.986Z,99.90
2017-07-22T09:48:45.299Z,99.90
2017-07-22T09:51:12.830Z,99.90
2017-07-22T09:53:40.374Z,99.90
2017-07-22T09:56:08.666Z,99.90
2017-07-22T09:58:36.213Z,99.90
2017-07-22T10:01:04.503Z,99.90
2017-07-22T10:03:32.060Z,99.90
2017-07-22T10:05:59.577Z,99.90
2017-07-22T10:08:27.127Z,99.90
2017-07-22T10:10:54.642Z,99.90
2017-07-22T10:13:22.191Z,99.90
2017-07-22T10:15:50.475Z,99.90
2017-07-22T10:18:18.787Z,99.90
2017-07-22T10:20:46.332Z,99.90
2017-07-22T10:23:13.899Z,99.90
2017-07-22T10:25:41.427Z,99.90
2017-07-22T10:28:09.713Z,99.90
2017-07-22T10:30:37.255Z,99.90
2017-07-22T10:33:05.541Z,99.90
2017-07-22T10:35:33.852Z,99.90
2017-07-22T10:38:01.374Z,99.90
2017-07-22T10:40:29.691Z,99.90
2017-07-22T10:42:57.227Z,99.90
2017-07-22T10:45:24.773Z,99.90
2017-07-22T10:47:53.080Z,99.90
2017-07-22T10:50:20.634Z,99.90
2017-07-22T10:52:48.153Z,99.90
2017-07-22T10:55:15.712Z,99.90
2017-07-22T10:57:43.247Z,99.90
2017-07-22T11:00:10.811Z,99.90
2017-07-22T11:02:38.334Z,99.90
2017-07-22T11:05:05.882Z,99.90
2017-07-22T11:07:33.409Z,99.90
2017-07-22T11:10:00.950Z,99.90
2017-07-22T11:12:28.470Z,99.90
2017-07-22T11:14:56.017Z,99.90
2017-07-22T11:17:23.542Z,99.90
2017-07-22T11:19:51.086Z,99.90
2017-07-22T11:22:18.606Z,99.90
2017-07-22T11:24:46.162Z,99.90
2017-07-22T11:27:13.693Z,99.90
2017-07-22T11:29:41.243Z,99.90
2017-07-22T11:32:09.539Z,99.90
2017-07-22T11:34:37.831Z,99.90
2017-07-22T11:37:05.383Z,99.90
2017-07-22T11:39:32.903Z,99.90
2017-07-22T11:42:00.446Z,99.90
2017-07-22T11:44:27.971Z,99.90
2017-07-22T11:46:55.524Z,99.90
2017-07-22T11:49:23.055Z,99.90
2017-07-22T11:51:50.608Z,99.90
2017-07-22T11:54:18.150Z,99.90
2017-07-22T11:56:45.714Z,99.90
2017-07-22T11:59:13.237Z,99.90
2017-07-22T12:01:40.791Z,99.90
2017-07-22T12:04:08.317Z,99.90
2017-07-22T12:06:36.631Z,99.90
2017-07-22T12:09:04.455Z,99.90
2017-07-22T12:11:32.179Z,99.90
2017-07-22T12:13:59.717Z,99.90
2017-07-22T12:16:27.267Z,99.90
2017-07-22T12:18:54.789Z,99.90
2017-07-22T12:21:22.351Z,99.90
2017-07-22T12:23:49.913Z,99.90
2017-07-22T12:26:17.466Z,99.90
2017-07-22T12:28:44.987Z,99.90
2017-07-22T12:31:12.571Z,99.90
2017-07-22T12:33:40.095Z,99.90
2017-07-22T12:36:07.609Z,99.90
2017-07-22T12:38:35.153Z,99.90
2017-07-22T12:41:02.670Z,99.90
2017-07-22T12:43:30.213Z,99.90
2017-07-22T12:45:57.746Z,99.90
2017-07-22T12:48:25.290Z,99.90
2017-07-22T12:50:52.816Z,99.90
2017-07-22T12:53:20.361Z,99.90
2017-07-22T12:55:47.890Z,99.90
2017-07-22T12:58:16.205Z,99.90
2017-07-22T13:00:43.727Z,99.90
2017-07-22T13:03:11.322Z,99.90
2017-07-22T13:05:38.854Z,99.90
2017-07-22T13:08:07.173Z,99.90
2017-07-22T13:10:34.704Z,99.90
2017-07-22T13:13:02.254Z,99.90
2017-07-22T13:15:30.542Z,99.90
2017-07-22T13:17:58.094Z,99.90
2017-07-22T13:20:25.648Z,99.90
2017-07-22T13:23:02.524Z,99.90
2017-07-22T13:25:30.822Z,99.90
2017-07-22T13:27:58.392Z,99.90
2017-07-22T13:30:25.943Z,99.90
2017-07-22T13:32:54.323Z,99.90
2017-07-22T13:35:21.866Z,99.90
2017-07-22T13:37:49.454Z,99.90
2017-07-22T13:40:17.127Z,99.90
2017-07-22T13:42:44.654Z,99.90
2017-07-22T13:45:12.194Z,99.90
2017-07-22T13:47:39.866Z,99.90
2017-07-22T13:50:08.187Z,99.90
2017-07-22T13:52:35.718Z,99.90
2017-07-22T13:55:03.270Z,99.90
2017-07-22T13:57:31.767Z,99.90
2017-07-22T13:59:59.319Z,99.90
2017-07-22T14:02:26.841Z,99.90
2017-07-22T14:04:54.395Z,99.90
2017-07-22T14:07:22.682Z,99.90
2017-07-22T14:09:50.226Z,99.90
2017-07-22T14:12:17.750Z,99.90
2017-07-22T14:14:45.306Z,99.90
2017-07-22T14:17:12.821Z,99.40
2017-07-22T14:19:40.370Z,98.00
2017-07-22T14:22:07.911Z,98.70
2017-07-22T14:24:35.471Z,98.40
2017-07-22T14:27:02.992Z,98.30
2017-07-22T14:29:30.538Z,99.70
2017-07-22T14:31:58.838Z,98.70
2017-07-22T14:34:26.378Z,98.70
2017-07-22T14:36:54.666Z,97.90
2017-07-22T14:39:22.230Z,98.00
2017-07-22T14:41:49.751Z,98.50
2017-07-22T14:44:22.677Z,97.60
2017-07-22T14:46:50.232Z,95.70
2017-07-22T14:49:17.781Z,96.20
2017-07-22T14:51:45.334Z,95.50
2017-07-22T14:54:12.863Z,96.30
2017-07-22T14:56:40.407Z,96.10
2017-07-22T14:59:07.931Z,94.80
2017-07-22T15:01:35.475Z,94.50
2017-07-22T15:04:03.762Z,93.70
2017-07-22T15:06:31.318Z,93.70
2017-07-22T15:08:59.615Z,93.20
2017-07-22T15:11:27.159Z,93.20
2017-07-22T15:13:54.689Z,94.00
2017-07-22T15:16:23.002Z,94.30
2017-07-22T15:18:50.528Z,94.60
2017-07-22T15:21:18.082Z,93.50
2017-07-22T15:23:45.610Z,92.10
2017-07-22T15:26:13.171Z,92.60
2017-07-22T15:28:40.690Z,92.50
2017-07-22T15:31:08.238Z,91.70
2017-07-22T15:33:35.758Z,92.40
2017-07-22T15:36:03.310Z,92.00
2017-07-22T15:38:30.834Z,92.10
2017-07-22T15:40:58.394Z,92.70
2017-07-22T15:43:25.923Z,93.70
2017-07-22T15:45:54.210Z,91.80
2017-07-22T15:48:22.518Z,91.20
2017-07-22T15:50:50.499Z,91.30
2017-07-22T15:53:18.102Z,91.40
2017-07-22T15:55:45.974Z,92.70
2017-07-22T15:58:15.570Z,92.50
2017-07-22T16:00:43.430Z,92.40
2017-07-22T16:03:11.042Z,91.80
2017-07-22T16:05:38.567Z,92.00
2017-07-22T16:08:06.115Z,91.10
2017-07-22T16:10:33.638Z,90.50
2017-07-22T16:13:01.186Z,88.40
2017-07-22T16:15:29.044Z,89.10
2017-07-22T16:17:56.602Z,88.20
2017-07-22T16:20:24.131Z,85.10
2017-07-22T16:22:51.690Z,86.00
2017-07-22T16:25:19.206Z,83.50
2017-07-22T16:27:46.763Z,82.30
2017-07-22T16:30:14.307Z,85.60
2017-07-22T16:32:41.855Z,85.00
2017-07-22T16:35:09.374Z,83.80
2017-07-22T16:37:36.914Z,83.20
2017-07-22T16:40:04.471Z,82.00
2017-07-22T16:42:32.031Z,81.80
2017-07-22T16:44:59.551Z,78.90
2017-07-22T16:47:27.098Z,75.60
2017-07-22T16:49:55.413Z,71.80
2017-07-22T16:52:22.934Z,71.90
2017-07-22T16:54:51.243Z,70.20
2017-07-22T16:57:18.766Z,69.80
2017-07-22T16:59:46.343Z,71.00
2017-07-22T17:02:13.866Z,69.50
2017-07-22T17:04:41.405Z,71.50
2017-07-22T17:07:08.923Z,74.70
2017-07-22T17:09:36.478Z,79.90
2017-07-22T17:12:04.007Z,77.10
2017-07-22T17:14:31.555Z,77.20
2017-07-22T17:16:59.089Z,77.40
2017-07-22T17:19:26.645Z,78.50
2017-07-22T17:21:54.162Z,78.20
2017-07-22T17:24:22.483Z,77.20
2017-07-22T17:26:50.008Z,77.00
2017-07-22T17:29:17.553Z,76.80
2017-07-22T17:31:45.855Z,78.70
2017-07-22T17:34:13.418Z,78.90
2017-07-22T17:36:40.947Z,77.10
2017-07-22T17:39:08.490Z,77.30
2017-07-22T17:41:36.010Z,75.90
2017-07-22T17:44:03.565Z,73.80
2017-07-22T17:46:31.094Z,73.50
2017-07-22T17:48:59.387Z,75.70
2017-07-22T17:51:26.934Z,75.70
2017-07-22T17:53:55.218Z,79.40
2017-07-22T17:56:23.530Z,78.20
2017-07-22T17:58:51.050Z,78.20
2017-07-22T18:01:19.361Z,82.10
2017-07-22T18:03:46.888Z,82.00
2017-07-22T18:06:15.202Z,85.90
2017-07-22T18:08:42.750Z,85.80
2017-07-22T18:11:10.318Z,87.10
2017-07-22T18:13:37.851Z,90.10
2017-07-22T18:16:05.406Z,91.00
2017-07-22T18:18:32.931Z,91.60
2017-07-22T18:21:00.480Z,92.10
2017-07-22T18:23:28.034Z,92.50
2017-07-22T18:25:55.580Z,93.70
2017-07-22T18:28:23.131Z,94.10
2017-07-22T18:30:50.674Z,94.20
2017-07-22T18:33:18.214Z,94.80
2017-07-22T18:35:46.535Z,95.00
2017-07-22T18:38:14.056Z,95.00
2017-07-22T18:40:41.606Z,95.30
2017-07-22T18:43:09.902Z,96.00
2017-07-22T18:45:37.453Z,96.00
2017-07-22T18:48:05.747Z,96.70
2017-07-22T18:50:33.303Z,96.70
2017-07-22T18:53:00.850Z,96.50
2017-07-22T18:55:28.383Z,96.90
2017-07-22T18:57:55.932Z,96.50
2017-07-22T19:00:23.458Z,96.90
2017-07-22T19:02:50.998Z,97.70
2017-07-22T19:05:18.525Z,98.00
2017-07-22T19:07:46.075Z,98.30
2017-07-22T19:10:13.603Z,99.40
2017-07-22T19:12:41.158Z,99.70
2017-07-22T19:15:08.690Z,99.90
2017-07-22T19:17:36.242Z,99.90
2017-07-22T19:20:04.530Z,99.90
2017-07-22T19:22:32.078Z,99.90
2017-07-22T19:25:00.363Z,99.90
2017-07-22T19:27:27.914Z,99.90
2017-07-22T19:29:56.210Z,99.90
2017-07-22T19:32:23.760Z,99.90
2017-07-22T19:34:51.287Z,99.90
2017-07-22T19:37:18.835Z,99.90
2017-07-22T19:39:46.354Z,99.90
2017-07-22T19:42:13.910Z,99.90
2017-07-22T19:44:41.430Z,99.90
2017-07-22T19:47:08.986Z,99.90
2017-07-22T19:49:36.524Z,99.90
2017-07-22T19:52:04.083Z,99.90
2017-07-22T19:54:31.610Z,99.90
2017-07-22T19:56:59.174Z,99.90
2017-07-22T19:59:26.707Z,99.90
2017-07-22T20:01:54.994Z,99.90
2017-07-22T20:04:22.543Z,99.90
2017-07-22T20:06:50.831Z,99.90
2017-07-22T20:09:18.378Z,99.90
2017-07-22T20:11:46.667Z,99.90
2017-07-22T20:14:14.218Z,99.90
2017-07-22T20:16:42.509Z,99.90
2017-07-22T20:19:10.054Z,99.90
2017-07-22T20:21:38.338Z,99.90
2017-07-22T20:24:05.886Z,99.90
2017-07-22T20:26:34.179Z,99.90
2017-07-22T20:29:01.735Z,99.90
2017-07-22T20:31:29.258Z,99.90
2017-07-22T20:33:56.887Z,99.90
2017-07-22T20:36:24.409Z,99.90
2017-07-22T20:38:51.946Z,99.90
2017-07-22T20:41:19.474Z,99.90
2017-07-22T20:43:47.019Z,99.90
2017-07-22T20:46:14.533Z,99.90
2017-07-22T20:48:42.853Z,99.90
2017-07-22T20:51:10.386Z,99.90
2017-07-22T20:53:37.942Z,99.90
2017-07-22T20:56:05.462Z,99.90
2017-07-22T20:58:33.037Z,99.90
2017-07-22T21:01:00.579Z,99.90
2017-07-22T21:03:28.193Z,99.90
2017-07-22T21:05:55.721Z,99.90
2017-07-22T21:08:23.241Z,99.90
2017-07-22T21:10:50.788Z,99.90
2017-07-22T21:13:18.309Z,99.90
2017-07-22T21:15:46.621Z,99.90
2017-07-22T21:18:14.147Z,99.90
2017-07-22T21:20:42.473Z,99.90
2017-07-22T21:23:09.994Z,99.90
2017-07-22T21:25:38.307Z,99.90
2017-07-22T21:28:05.871Z,99.90
2017-07-22T21:30:33.427Z,99.90
2017-07-22T21:33:00.946Z,99.90
2017-07-22T21:35:29.288Z,99.90
2017-07-22T21:37:56.860Z,99.90
2017-07-22T21:40:24.406Z,99.90
2017-07-22T21:42:51.954Z,99.90
2017-07-22T21:45:19.510Z,99.90
2017-07-22T21:47:47.062Z,99.90
2017-07-22T21:50:14.634Z,99.90
2017-07-22T21:52:42.167Z,99.90
2017-07-22T21:55:09.722Z,99.90
2017-07-22T21:57:37.255Z,99.90
2017-07-22T22:00:05.584Z,99.90
2017-07-22T22:02:33.110Z,99.90
2017-07-22T22:05:00.662Z,99.90
2017-07-22T22:07:28.202Z,99.90
2017-07-22T22:09:56.494Z,99.90
2017-07-22T22:12:37.735Z,99.90
2017-07-22T22:15:05.276Z,99.90
2017-07-22T22:17:32.839Z,99.90
2017-07-22T22:20:00.411Z,99.90
2017-07-22T22:22:28.785Z,99.90
2017-07-22T22:24:56.314Z,99.90
2017-07-22T22:27:23.878Z,99.90
2017-07-22T22:29:51.521Z,99.90
2017-07-22T22:51:17.107Z,99.90
2017-07-22T22:53:44.640Z,99.90
2017-07-22T22:56:12.216Z,99.90
2017-07-22T22:58:39.738Z,99.90
2017-07-22T23:01:07.284Z,99.90
2017-07-22T23:03:35.615Z,99.90
2017-07-22T23:06:03.146Z,99.90
2017-07-22T23:08:30.708Z,99.90
2017-07-22T23:10:58.248Z,99.90
2017-07-22T23:13:26.574Z,99.90
2017-07-22T23:15:54.107Z,99.90
2017-07-22T23:18:21.659Z,99.90
2017-07-22T23:20:49.198Z,99.90
2017-07-22T23:23:17.519Z,99.90
2017-07-22T23:25:45.038Z,99.90
2017-07-22T23:28:13.361Z,99.90
2017-07-22T23:30:40.896Z,99.90
2017-07-22T23:33:08.446Z,99.90
2017-07-22T23:35:35.983Z,99.90
2017-07-22T23:38:04.836Z,99.90
2017-07-22T23:40:32.364Z,99.90
2017-07-22T23:42:59.928Z,99.90
2017-07-22T23:45:27.455Z,99.90
2017-07-22T23:47:55.003Z,99.90
2017-07-22T23:50:22.539Z,99.90
2017-07-22T23:52:50.091Z,99.90
2017-07-22T23:55:17.620Z,99.90
2017-07-22T23:57:45.154Z,99.90
